createdAt,value
2022-10-06T00:00:12.781Z,99020.38
2022-10-06T00:05:31.018Z,99024.63
2022-10-06T00:10:35.178Z,99029.01
2022-10-06T00:15:39.822Z,99031.75
2022-10-06T00:20:43.939Z,99026.43
2022-10-06T00:25:48.379Z,99032.08
2022-10-06T00:30:53.436Z,99030.81
2022-10-06T00:35:58.397Z,99034.59
2022-10-06T00:41:02.922Z,99038.51
2022-10-06T00:46:07.637Z,99042.20
2022-10-06T00:51:11.888Z,99044.63
2022-10-06T00:56:16.120Z,99046.52
2022-10-06T01:01:20.624Z,99047.23
2022-10-06T01:06:24.698Z,99049.01
2022-10-06T01:11:28.598Z,99052.25
2022-10-06T01:16:36.122Z,99051.86
2022-10-06T01:21:42.916Z,99053.02
2022-10-06T01:26:48.531Z,99056.72
2022-10-06T01:31:52.807Z,99060.48
2022-10-06T01:36:57.039Z,99054.20
2022-10-06T01:42:01.679Z,99054.35
2022-10-06T01:47:06.428Z,99055.23
2022-10-06T01:52:10.681Z,99052.32
2022-10-06T01:57:14.778Z,99052.70
2022-10-06T02:02:19.008Z,99057.19
2022-10-06T02:07:23.172Z,99054.27
2022-10-06T02:12:27.378Z,99058.83
2022-10-06T02:17:31.081Z,99058.67
2022-10-06T02:22:39.093Z,99064.79
2022-10-06T02:27:42.620Z,99062.77
2022-10-06T02:32:46.129Z,99058.27
2022-10-06T02:37:49.751Z,99062.59
2022-10-06T02:42:53.275Z,99068.73
2022-10-06T02:47:56.818Z,99063.54
2022-10-06T02:53:00.210Z,99062.67
2022-10-06T02:58:03.808Z,99063.22
2022-10-06T03:03:07.328Z,99063.94
2022-10-06T03:08:11.508Z,99066.75
2022-10-06T03:13:15.058Z,99070.22
2022-10-06T03:18:18.582Z,99076.88
2022-10-06T03:23:22.096Z,99074.38
2022-10-06T03:28:25.911Z,99071.70
2022-10-06T03:33:30.459Z,99072.48
2022-10-06T03:38:35.132Z,99078.06
2022-10-06T03:43:39.129Z,99077.44
2022-10-06T03:48:42.837Z,99082.78
2022-10-06T03:53:47.315Z,99084.72
2022-10-06T03:58:52.433Z,99088.98
2022-10-06T04:03:56.459Z,99081.59
2022-10-06T04:09:00.378Z,99092.12
2022-10-06T04:14:05.457Z,99096.98
2022-10-06T04:19:10.119Z,99102.65
2022-10-06T04:24:13.687Z,99103.33
2022-10-06T04:29:17.411Z,99105.45
2022-10-06T04:34:21.119Z,99105.84
2022-10-06T04:39:24.856Z,99113.37
2022-10-06T04:44:28.762Z,99109.37
2022-10-06T04:49:32.389Z,99119.89
2022-10-06T04:54:35.907Z,99124.99
2022-10-06T04:59:59.501Z,99129.46
2022-10-06T05:05:08.055Z,99137.95
2022-10-06T05:10:11.744Z,99141.08
2022-10-06T05:15:15.831Z,99137.10
2022-10-06T05:20:22.428Z,99137.48
2022-10-06T05:25:25.657Z,99139.84
2022-10-06T05:30:29.169Z,99147.31
2022-10-06T05:35:32.618Z,99155.15
2022-10-06T05:40:36.207Z,99160.20
2022-10-06T05:45:39.738Z,99159.19
2022-10-06T05:50:43.440Z,99163.77
2022-10-06T05:55:47.159Z,99173.23
2022-10-06T06:00:50.677Z,99187.95
2022-10-06T06:05:54.498Z,99202.04
2022-10-06T06:11:06.001Z,99212.20
2022-10-06T06:16:13.844Z,99214.47
2022-10-06T06:21:17.627Z,99212.56
2022-10-06T06:26:23.299Z,99217.28
2022-10-06T06:31:27.809Z,99223.97
2022-10-06T06:36:35.331Z,99234.58
2022-10-06T06:41:39.677Z,99240.95
2022-10-06T06:46:44.589Z,99243.95
2022-10-06T06:51:49.973Z,99247.89
2022-10-06T06:56:54.896Z,99252.91
2022-10-06T07:01:58.690Z,99262.67
2022-10-06T07:07:02.577Z,99269.67
2022-10-06T07:12:06.206Z,99275.56
2022-10-06T07:17:28.038Z,99279.32
2022-10-06T07:22:49.471Z,99279.01
2022-10-06T07:27:53.501Z,99288.66
2022-10-06T07:32:56.997Z,99288.98
2022-10-06T07:38:07.487Z,99292.97
2022-10-06T07:43:10.865Z,99298.15
2022-10-06T07:48:15.341Z,99307.65
2022-10-06T07:53:19.158Z,99311.58
2022-10-06T07:58:23.798Z,99316.60
2022-10-06T08:03:27.542Z,99323.44
2022-10-06T08:08:32.339Z,99322.83
2022-10-06T08:13:37.006Z,99330.75
2022-10-06T08:18:46.481Z,99335.45
2022-10-06T08:23:51.390Z,99343.86
2022-10-06T08:28:57.237Z,99342.70
2022-10-06T08:34:01.139Z,99354.95
2022-10-06T08:39:06.862Z,99360.77
2022-10-06T08:44:19.199Z,99362.88
2022-10-06T08:49:23.817Z,99371.07
2022-10-06T08:54:31.937Z,99370.21
2022-10-06T08:59:36.015Z,99373.02
2022-10-06T09:04:39.591Z,99367.06
2022-10-06T09:09:56.350Z,99362.57
2022-10-06T09:15:05.379Z,99369.17
2022-10-06T09:20:16.752Z,99383.13
2022-10-06T09:25:21.804Z,99388.41
2022-10-06T09:30:25.929Z,99384.50
2022-10-06T09:35:31.708Z,99394.17
2022-10-06T09:40:36.701Z,99396.73
2022-10-06T09:45:42.017Z,99399.61
2022-10-06T09:50:45.748Z,99401.98
2022-10-06T09:55:55.062Z,99404.54
2022-10-06T10:01:00.391Z,99401.33
2022-10-06T10:06:04.158Z,99405.84
2022-10-06T10:11:37.677Z,99404.22
2022-10-06T10:16:41.908Z,99398.27
2022-10-06T10:21:46.137Z,99398.09
2022-10-06T10:26:54.277Z,99405.02
2022-10-06T10:32:03.111Z,99401.85
2022-10-06T10:37:09.738Z,99413.98
2022-10-06T10:42:15.669Z,99418.29
2022-10-06T10:47:22.670Z,99417.73
2022-10-06T10:52:30.093Z,99427.94
2022-10-06T10:57:36.757Z,99431.45
2022-10-06T11:02:40.778Z,99428.55
2022-10-06T11:07:47.422Z,99430.97
2022-10-06T11:13:09.898Z,99433.23
2022-10-06T11:18:22.278Z,99431.94
2022-10-06T11:23:32.007Z,99440.13
2022-10-06T11:28:39.884Z,99441.73
2022-10-06T11:33:47.655Z,99445.66
2022-10-06T11:38:54.608Z,99454.54
2022-10-06T11:44:04.205Z,99452.08
2022-10-06T11:49:25.842Z,99447.52
2022-10-06T11:54:46.315Z,99449.09
2022-10-06T11:59:50.782Z,99456.19
2022-10-06T12:05:28.476Z,99446.89
2022-10-06T12:10:35.194Z,99450.54
2022-10-06T12:21:34.030Z,99451.92
2022-10-06T12:26:46.137Z,99451.77
2022-10-06T12:31:55.607Z,99461.04
2022-10-06T12:37:13.247Z,99461.64
2022-10-06T12:42:20.137Z,99461.05
2022-10-06T12:47:29.741Z,99456.95
2022-10-06T12:52:43.047Z,99459.08
2022-10-06T12:57:47.909Z,99459.61
2022-10-06T13:02:53.357Z,99457.80
2022-10-06T13:07:57.588Z,99465.52
2022-10-06T13:13:01.503Z,99468.46
2022-10-06T13:18:12.287Z,99474.85
2022-10-06T13:23:23.388Z,99472.82
2022-10-06T13:28:28.927Z,99471.14
2022-10-06T13:33:33.828Z,99476.41
2022-10-06T13:38:38.739Z,99477.75
2022-10-06T13:43:43.677Z,99483.02
2022-10-06T13:48:48.761Z,99484.83
2022-10-06T13:53:52.707Z,99487.41
2022-10-06T13:58:56.377Z,99491.25
2022-10-06T14:04:12.941Z,99495.52
2022-10-06T14:09:20.987Z,99495.65
2022-10-06T14:14:24.397Z,99497.76
2022-10-06T14:19:35.250Z,99501.23
2022-10-06T14:24:50.728Z,99509.70
2022-10-06T14:29:55.936Z,99518.28
2022-10-06T14:35:01.231Z,99522.84
2022-10-06T14:40:10.147Z,99532.65
2022-10-06T14:45:17.145Z,99539.75
2022-10-06T14:50:21.087Z,99544.38
2022-10-06T14:55:29.599Z,99557.81
2022-10-06T15:00:33.457Z,99564.90
2022-10-06T15:05:58.669Z,99564.96
2022-10-06T15:11:02.177Z,99566.88
2022-10-06T15:16:06.680Z,99566.70
2022-10-06T15:21:11.008Z,99574.15
2022-10-06T15:26:32.377Z,99579.27
2022-10-06T15:31:36.755Z,99594.69
2022-10-06T15:36:40.917Z,99604.25
2022-10-06T15:41:45.420Z,99613.72
2022-10-06T15:46:49.826Z,99626.80
2022-10-06T15:51:54.347Z,99632.10
2022-10-06T15:56:58.997Z,99634.93
2022-10-06T16:02:04.493Z,99643.11
2022-10-06T16:07:08.837Z,99647.27
2022-10-06T16:12:13.547Z,99652.05
2022-10-06T16:17:17.786Z,99653.02
2022-10-06T16:22:21.591Z,99661.09
2022-10-06T16:27:25.244Z,99662.27
2022-10-06T16:32:30.052Z,99668.08
2022-10-06T16:37:33.867Z,99665.36
2022-10-06T16:42:37.679Z,99666.86
2022-10-06T16:47:41.618Z,99668.83
2022-10-06T16:52:45.443Z,99674.31
2022-10-06T16:57:48.948Z,99681.23
2022-10-06T17:02:54.129Z,99682.36
2022-10-06T17:07:59.256Z,99687.70
2022-10-06T17:13:03.287Z,99700.11
2022-10-06T17:18:07.108Z,99709.48
2022-10-06T17:23:11.007Z,99717.73
2022-10-06T17:28:14.908Z,99720.87
2022-10-06T17:33:19.192Z,99720.92
2022-10-06T17:38:22.797Z,99723.05
2022-10-06T17:43:26.628Z,99717.89
2022-10-06T17:48:30.137Z,99722.45
2022-10-06T17:53:33.690Z,99723.14
2022-10-06T17:58:37.629Z,99723.14
2022-10-06T18:03:42.566Z,99726.94
2022-10-06T18:08:47.589Z,99731.11
2022-10-06T18:13:51.707Z,99736.92
2022-10-06T18:18:55.954Z,99741.70
2022-10-06T18:23:59.557Z,99748.30
2022-10-06T18:29:03.527Z,99757.51
2022-10-06T18:39:31.768Z,99770.77
2022-10-06T18:44:53.448Z,99771.35
2022-10-06T18:49:57.912Z,99778.33
2022-10-06T18:55:01.407Z,99779.91
2022-10-06T19:00:06.237Z,99784.40
2022-10-06T19:05:10.179Z,99783.98
2022-10-06T19:10:13.886Z,99786.76
2022-10-06T19:15:20.735Z,99794.38
2022-10-06T19:20:25.533Z,99799.58
2022-10-06T19:25:29.254Z,99802.80
2022-10-06T19:30:32.914Z,99807.67
2022-10-06T19:35:36.498Z,99811.05
2022-10-06T19:40:39.997Z,99811.67
2022-10-06T19:45:43.776Z,99813.47
2022-10-06T19:50:47.328Z,99816.66
2022-10-06T19:55:50.829Z,99815.39
2022-10-06T20:00:54.374Z,99822.48
2022-10-06T20:06:02.140Z,99827.95
2022-10-06T20:11:06.694Z,99832.23
2022-10-06T20:16:11.528Z,99834.52
2022-10-06T20:21:16.673Z,99839.29
2022-10-06T20:26:21.473Z,99841.27
2022-10-06T20:31:26.317Z,99850.86
2022-10-06T20:36:30.527Z,99854.67
2022-10-06T20:41:34.250Z,99856.36
2022-10-06T20:46:38.783Z,99859.83
2022-10-06T20:51:46.400Z,99855.41
2022-10-06T20:56:50.778Z,99860.44
2022-10-06T21:01:54.793Z,99863.35
2022-10-06T21:06:58.267Z,99863.86
2022-10-06T21:12:02.104Z,99865.23
2022-10-06T21:17:05.606Z,99864.23
2022-10-06T21:22:09.223Z,99859.67
2022-10-06T21:27:12.738Z,99863.85
2022-10-06T21:32:16.254Z,99863.23
2022-10-06T21:37:19.747Z,99866.43
2022-10-06T21:42:23.387Z,99867.94
2022-10-06T21:47:27.264Z,99865.66
2022-10-06T21:52:31.026Z,99868.10
2022-10-06T21:57:34.549Z,99872.50
2022-10-06T22:02:38.208Z,99873.04
2022-10-06T22:07:42.366Z,99874.77
2022-10-06T22:12:46.006Z,99876.12
2022-10-06T22:17:49.516Z,99873.54
2022-10-06T22:22:53.275Z,99871.71
2022-10-06T22:27:56.841Z,99867.15
2022-10-06T22:33:00.481Z,99869.44
2022-10-06T22:38:04.088Z,99866.05
2022-10-06T22:43:07.605Z,99862.67
2022-10-06T22:48:11.225Z,99862.54
2022-10-06T22:53:15.853Z,99856.63
2022-10-06T22:58:19.545Z,99863.45
2022-10-06T23:03:23.944Z,99862.13
2022-10-06T23:08:31.408Z,99859.77
2022-10-06T23:13:38.525Z,99859.29
2022-10-06T23:18:43.196Z,99860.32
2022-10-06T23:23:46.675Z,99857.57
2022-10-06T23:28:52.735Z,99854.95
2022-10-06T23:33:56.365Z,99847.95
2022-10-06T23:39:00.404Z,99856.46
2022-10-06T23:44:03.814Z,99856.23
2022-10-06T23:49:07.305Z,99856.77
2022-10-06T23:54:10.742Z,99860.08
2022-10-06T23:59:14.355Z,99857.16
